createdAt,value
2019-01-02T00:00:09.226Z,3.60
2019-01-02T00:01:09.192Z,3.60
2019-01-02T00:02:09.178Z,3.52
2019-01-02T00:03:09.166Z,3.51
2019-01-02T00:04:09.159Z,3.60
2019-01-02T00:05:09.185Z,3.47
2019-01-02T00:06:09.136Z,3.48
2019-01-02T00:07:09.125Z,3.51
2019-01-02T00:08:09.115Z,3.50
2019-01-02T00:09:09.105Z,3.47
2019-01-02T00:10:09.093Z,3.52
2019-01-02T00:11:09.105Z,3.45
2019-01-02T00:12:09.072Z,3.43
2019-01-02T00:13:09.070Z,3.45
2019-01-02T00:14:09.050Z,3.40
2019-01-02T00:15:09.042Z,3.40
2019-01-02T00:16:09.053Z,3.45
2019-01-02T00:17:09.018Z,3.40
2019-01-02T00:18:09.007Z,3.42
2019-01-02T00:19:08.996Z,3.43
2019-01-02T00:20:08.987Z,3.43
2019-01-02T00:21:09.004Z,3.36
2019-01-02T00:22:08.967Z,3.36
2019-01-02T00:23:08.959Z,3.39
2019-01-02T00:24:08.943Z,3.42
2019-01-02T00:25:08.934Z,3.35
2019-01-02T00:26:08.956Z,3.33
2019-01-02T00:27:08.920Z,3.33
2019-01-02T00:28:08.903Z,3.39
2019-01-02T00:29:08.898Z,3.42
2019-01-02T00:30:08.881Z,3.40
2019-01-02T00:31:08.912Z,3.33
2019-01-02T00:32:08.867Z,3.32
2019-01-02T00:33:08.850Z,3.42
2019-01-02T00:34:08.838Z,3.33
2019-01-02T00:35:08.826Z,3.23
2019-01-02T00:36:08.815Z,3.33
2019-01-02T00:37:08.833Z,3.31
2019-01-02T00:38:08.794Z,3.39
2019-01-02T00:39:09.179Z,3.32
2019-01-02T00:40:08.773Z,3.36
2019-01-02T00:41:08.763Z,3.39
2019-01-02T00:42:08.775Z,3.36
2019-01-02T00:43:08.741Z,3.39
2019-01-02T00:44:08.734Z,3.23
2019-01-02T00:45:08.719Z,3.35
2019-01-02T00:46:08.708Z,3.36
2019-01-02T00:47:08.723Z,3.20
2019-01-02T00:48:08.689Z,3.35
2019-01-02T00:49:08.675Z,3.21
2019-01-02T00:50:08.676Z,3.35
2019-01-02T00:51:08.657Z,3.36
2019-01-02T00:52:08.670Z,3.43
2019-01-02T00:53:08.635Z,3.33
2019-01-02T00:54:08.623Z,3.32
2019-01-02T00:55:08.613Z,3.32
2019-01-02T00:56:08.614Z,3.40
2019-01-02T00:57:08.629Z,3.32
2019-01-02T00:58:08.580Z,3.24
2019-01-02T00:59:08.573Z,3.29
2019-01-02T01:00:08.559Z,3.31
2019-01-02T01:01:08.547Z,3.40
2019-01-02T01:02:08.537Z,3.42
2019-01-02T01:03:08.553Z,3.36
2019-01-02T01:04:08.516Z,3.32
2019-01-02T01:05:08.506Z,3.43
2019-01-02T01:06:08.497Z,3.36
2019-01-02T01:07:08.484Z,3.35
2019-01-02T01:08:08.498Z,3.42
2019-01-02T01:09:08.462Z,3.23
2019-01-02T01:10:08.452Z,3.39
2019-01-02T01:11:08.441Z,3.24
2019-01-02T01:12:08.432Z,3.35
2019-01-02T01:13:08.456Z,3.40
2019-01-02T01:14:08.410Z,3.39
2019-01-02T01:15:08.399Z,3.35
2019-01-02T01:16:08.388Z,3.39
2019-01-02T01:17:08.381Z,3.39
2019-01-02T01:18:08.367Z,3.35
2019-01-02T01:19:08.383Z,3.28
2019-01-02T01:20:08.351Z,3.33
2019-01-02T01:21:08.335Z,3.35
2019-01-02T01:22:08.325Z,3.40
2019-01-02T01:23:08.313Z,3.28
2019-01-02T01:24:08.331Z,3.32
2019-01-02T01:25:08.303Z,3.35
2019-01-02T01:26:08.285Z,3.40
2019-01-02T01:27:08.271Z,3.39
2019-01-02T01:28:08.259Z,3.36
2019-01-02T01:29:08.275Z,3.33
2019-01-02T01:30:08.255Z,3.39
2019-01-02T01:31:08.229Z,3.36
2019-01-02T01:32:08.216Z,3.35
2019-01-02T01:33:08.206Z,3.28
2019-01-02T01:34:08.224Z,3.39
2019-01-02T01:35:08.185Z,3.36
2019-01-02T01:36:08.181Z,3.32
2019-01-02T01:37:08.164Z,3.23
2019-01-02T01:38:08.154Z,3.36
2019-01-02T01:39:08.195Z,3.33
2019-01-02T01:40:08.133Z,3.33
2019-01-02T01:41:08.121Z,3.39
2019-01-02T01:42:08.112Z,3.43
2019-01-02T01:43:08.100Z,3.21
2019-01-02T01:44:08.127Z,3.26
2019-01-02T01:45:08.079Z,3.32
2019-01-02T01:46:08.069Z,3.28
2019-01-02T01:47:08.059Z,3.31
2019-01-02T01:48:08.046Z,3.33
2019-01-02T01:49:08.036Z,3.31
2019-01-02T01:50:08.049Z,3.29
2019-01-02T01:51:08.014Z,3.28
2019-01-02T01:52:08.004Z,3.24
2019-01-02T01:53:07.995Z,3.29
2019-01-02T01:54:07.985Z,3.28
2019-01-02T01:55:08.001Z,3.32
2019-01-02T01:56:07.960Z,3.23
2019-01-02T01:57:07.953Z,3.31
2019-01-02T01:58:07.941Z,3.29
2019-01-02T01:59:07.930Z,3.29
2019-01-02T02:00:07.957Z,3.32
2019-01-02T02:01:07.909Z,3.29
2019-01-02T02:02:08.041Z,3.29
2019-01-02T02:03:07.888Z,3.29
2019-01-02T02:04:07.879Z,3.33
2019-01-02T02:05:07.870Z,3.32
2019-01-02T02:06:07.890Z,3.36
2019-01-02T02:07:07.845Z,3.26
2019-01-02T02:08:07.835Z,3.32
2019-01-02T02:09:07.823Z,3.29
2019-01-02T02:10:07.844Z,3.23
2019-01-02T02:11:07.803Z,3.36
2019-01-02T02:12:07.794Z,3.35
2019-01-02T02:13:07.781Z,3.35
2019-01-02T02:14:07.774Z,3.39
2019-01-02T02:15:07.784Z,3.32
2019-01-02T02:16:07.750Z,3.39
2019-01-02T02:17:07.740Z,3.33
2019-01-02T02:18:07.735Z,3.33
2019-01-02T02:19:07.717Z,3.33
2019-01-02T02:20:07.733Z,3.40
2019-01-02T02:21:07.695Z,3.35
2019-01-02T02:22:07.684Z,3.35
2019-01-02T02:23:07.675Z,3.40
2019-01-02T02:24:07.664Z,3.42
2019-01-02T02:25:07.653Z,3.40
2019-01-02T02:26:07.667Z,3.26
2019-01-02T02:27:07.633Z,3.23
2019-01-02T02:28:07.621Z,3.40
2019-01-02T02:29:07.613Z,3.35
2019-01-02T02:30:07.625Z,3.36
2019-01-02T02:31:07.593Z,3.32
2019-01-02T02:32:07.580Z,3.33
2019-01-02T02:33:07.567Z,3.36
2019-01-02T02:34:07.559Z,3.36
2019-01-02T02:35:07.583Z,3.36
2019-01-02T02:36:07.535Z,3.40
2019-01-02T02:37:07.529Z,3.33
2019-01-02T02:38:07.517Z,3.24
2019-01-02T02:39:07.503Z,3.24
2019-01-02T02:40:07.492Z,3.40
2019-01-02T02:41:07.508Z,3.39
2019-01-02T02:42:07.472Z,3.36
2019-01-02T02:43:07.466Z,3.39
2019-01-02T02:44:07.451Z,3.32
2019-01-02T02:45:07.438Z,3.29
2019-01-02T02:46:07.456Z,3.42
2019-01-02T02:47:07.420Z,3.33
2019-01-02T02:48:07.408Z,3.39
2019-01-02T02:49:07.398Z,3.35
2019-01-02T02:50:07.386Z,3.42
2019-01-02T02:51:07.403Z,3.32
2019-01-02T02:52:07.365Z,3.35
2019-01-02T02:53:07.356Z,3.40
2019-01-02T02:54:07.342Z,3.42
2019-01-02T02:55:07.331Z,3.42
2019-01-02T02:56:07.347Z,3.39
2019-01-02T02:57:07.313Z,3.43
2019-01-02T02:58:07.300Z,3.39
2019-01-02T02:59:07.292Z,3.43
2019-01-02T03:00:07.280Z,3.40
2019-01-02T03:01:07.296Z,3.52
2019-01-02T03:02:07.267Z,3.42
2019-01-02T03:03:07.249Z,3.47
2019-01-02T03:04:07.236Z,3.47
2019-01-02T03:05:07.225Z,3.43
2019-01-02T03:06:07.240Z,3.50
2019-01-02T03:07:07.205Z,3.40
2019-01-02T03:08:07.195Z,3.43
2019-01-02T03:09:07.186Z,3.54
2019-01-02T03:10:07.214Z,3.47
2019-01-02T03:11:07.163Z,3.51
2019-01-02T03:12:07.152Z,3.48
2019-01-02T03:13:07.139Z,3.51
2019-01-02T03:14:07.130Z,3.47
2019-01-02T03:15:07.120Z,3.48
2019-01-02T03:16:07.133Z,3.43
2019-01-02T03:17:07.098Z,3.48
2019-01-02T03:18:07.089Z,3.52
2019-01-02T03:19:07.075Z,3.52
2019-01-02T03:20:07.104Z,3.47
2019-01-02T03:21:07.065Z,3.45
2019-01-02T03:22:07.048Z,3.54
2019-01-02T03:23:07.034Z,3.43
2019-01-02T03:24:07.023Z,3.43
2019-01-02T03:25:07.015Z,3.50
2019-01-02T03:26:07.028Z,3.61
2019-01-02T03:27:07.007Z,3.57
2019-01-02T03:28:06.981Z,3.48
2019-01-02T03:29:06.974Z,3.48
2019-01-02T03:30:06.964Z,3.55
2019-01-02T03:31:06.982Z,3.51
2019-01-02T03:32:06.939Z,3.50
2019-01-02T03:33:06.931Z,3.52
2019-01-02T03:34:06.916Z,3.54
2019-01-02T03:35:06.904Z,3.60
2019-01-02T03:36:06.921Z,3.60
2019-01-02T03:37:06.886Z,3.51
2019-01-02T03:38:06.874Z,3.68
2019-01-02T03:39:06.861Z,3.70
2019-01-02T03:40:06.888Z,3.60
2019-01-02T03:41:06.839Z,3.62
2019-01-02T03:42:06.831Z,3.62
2019-01-02T03:43:06.820Z,3.68
2019-01-02T03:44:06.815Z,3.68
2019-01-02T03:45:06.800Z,3.75
2019-01-02T03:46:06.814Z,3.75
2019-01-02T03:47:06.775Z,3.76
2019-01-02T03:48:06.770Z,3.73
2019-01-02T03:49:06.755Z,3.68
2019-01-02T03:50:06.745Z,3.78
2019-01-02T03:51:06.761Z,3.75
2019-01-02T03:52:06.725Z,3.80
2019-01-02T03:53:06.711Z,3.69
2019-01-02T03:54:06.704Z,3.60
2019-01-02T03:55:06.692Z,3.51
2019-01-02T03:56:06.705Z,3.42
2019-01-02T03:57:06.670Z,3.40
2019-01-02T03:58:06.672Z,3.31
2019-01-02T03:59:06.650Z,3.40
2019-01-02T04:00:06.663Z,3.29
2019-01-02T04:01:06.628Z,3.28
2019-01-02T04:02:06.617Z,3.26
2019-01-02T04:03:06.608Z,3.23
2019-01-02T04:04:06.595Z,3.24
2019-01-02T04:05:06.624Z,3.24
2019-01-02T04:06:06.576Z,3.13
2019-01-02T04:07:06.564Z,3.11
2019-01-02T04:08:06.552Z,3.15
2019-01-02T04:09:06.546Z,3.13
2019-01-02T04:10:06.535Z,3.13
2019-01-02T04:11:06.546Z,3.13
2019-01-02T04:12:06.512Z,2.99
2019-01-02T04:13:06.499Z,3.03
2019-01-02T04:14:06.489Z,2.99
2019-01-02T04:15:06.488Z,2.92
2019-01-02T04:16:06.491Z,2.99
2019-01-02T04:17:06.461Z,2.92
2019-01-02T04:18:06.445Z,2.96
2019-01-02T04:19:06.436Z,2.95
2019-01-02T04:20:06.425Z,2.90
2019-01-02T04:21:06.488Z,2.89
2019-01-02T04:22:06.403Z,2.92
2019-01-02T04:23:06.394Z,2.93
2019-01-02T04:24:06.388Z,2.97
2019-01-02T04:25:06.398Z,2.92
2019-01-02T04:26:06.361Z,2.89
2019-01-02T04:27:06.350Z,2.92
2019-01-02T04:28:06.340Z,2.96
2019-01-02T04:29:06.328Z,2.90
2019-01-02T04:30:06.360Z,2.93
2019-01-02T04:31:06.310Z,2.90
2019-01-02T04:32:06.300Z,2.99
2019-01-02T04:33:06.288Z,2.99
2019-01-02T04:34:06.274Z,2.93
2019-01-02T04:35:06.267Z,2.95
2019-01-02T04:36:06.280Z,2.90
2019-01-02T04:37:06.244Z,2.97
2019-01-02T04:38:06.233Z,3.05
2019-01-02T04:39:06.222Z,2.99
2019-01-02T04:40:06.253Z,2.99
2019-01-02T04:41:06.202Z,3.10
2019-01-02T04:42:06.191Z,3.06
2019-01-02T04:43:06.178Z,3.05
2019-01-02T04:44:06.170Z,3.06
2019-01-02T04:45:06.162Z,3.08
2019-01-02T04:46:06.171Z,3.11
2019-01-02T04:47:06.138Z,3.11
2019-01-02T04:48:06.125Z,3.15
2019-01-02T04:49:06.115Z,3.20
2019-01-02T04:50:06.142Z,3.20
2019-01-02T04:51:06.096Z,3.13
2019-01-02T04:52:06.084Z,3.14
2019-01-02T04:53:06.075Z,3.24
2019-01-02T04:54:06.066Z,3.33
2019-01-02T04:55:06.053Z,3.29
2019-01-02T04:56:06.068Z,3.29
2019-01-02T04:57:06.031Z,3.32
2019-01-02T04:58:06.022Z,3.32
2019-01-02T04:59:06.009Z,3.39
2019-01-02T05:00:06.002Z,3.43
2019-01-02T05:01:06.017Z,3.39
2019-01-02T05:02:05.987Z,3.47
2019-01-02T05:03:05.969Z,3.40
2019-01-02T05:04:05.955Z,3.48
2019-01-02T05:05:05.973Z,3.51
2019-01-02T05:06:05.933Z,3.48
2019-01-02T05:07:05.925Z,3.55
2019-01-02T05:08:05.914Z,3.52
2019-01-02T05:09:05.902Z,3.60
2019-01-02T05:10:05.932Z,3.47
2019-01-02T05:11:05.880Z,3.55
2019-01-02T05:12:05.872Z,3.48
2019-01-02T05:13:05.860Z,3.60
2019-01-02T05:14:05.848Z,3.50
2019-01-02T05:15:05.840Z,3.50
2019-01-02T05:16:05.859Z,3.50
2019-01-02T05:17:05.819Z,3.54
2019-01-02T05:18:05.808Z,3.57
2019-01-02T05:19:05.796Z,3.47
2019-01-02T05:20:05.808Z,3.61
2019-01-02T05:21:05.775Z,3.51
2019-01-02T05:22:05.763Z,3.50
2019-01-02T05:23:05.753Z,3.55
2019-01-02T05:24:05.741Z,3.48
2019-01-02T05:25:05.758Z,3.47
2019-01-02T05:26:05.722Z,3.57
2019-01-02T05:27:05.711Z,3.54
2019-01-02T05:28:05.701Z,3.51
2019-01-02T05:29:05.689Z,3.45
2019-01-02T05:30:05.712Z,3.54
2019-01-02T05:31:05.669Z,3.55
2019-01-02T05:32:05.656Z,3.57
2019-01-02T05:33:05.645Z,3.52
2019-01-02T05:34:05.634Z,3.51
2019-01-02T05:35:05.625Z,3.51
2019-01-02T05:36:05.641Z,3.55
2019-01-02T05:37:05.602Z,3.58
2019-01-02T05:38:05.593Z,3.58
2019-01-02T05:39:05.585Z,3.50
2019-01-02T05:40:05.571Z,3.47
2019-01-02T05:41:05.587Z,3.52
2019-01-02T05:42:05.550Z,3.50
2019-01-02T05:43:05.539Z,3.48
2019-01-02T05:44:05.529Z,3.42
2019-01-02T05:45:05.517Z,3.50
2019-01-02T05:46:05.533Z,3.43
2019-01-02T05:47:05.498Z,3.42
2019-01-02T05:48:05.486Z,3.45
2019-01-02T05:49:05.475Z,3.39
2019-01-02T05:50:05.491Z,3.43
2019-01-02T05:51:05.452Z,3.47
2019-01-02T05:52:05.455Z,3.47
2019-01-02T05:53:05.433Z,3.39
2019-01-02T05:54:05.422Z,3.42
2019-01-02T05:55:05.411Z,3.36
2019-01-02T05:56:05.423Z,3.48
2019-01-02T05:57:05.392Z,3.40
2019-01-02T05:58:05.380Z,3.47
2019-01-02T05:59:05.368Z,3.47
2019-01-02T06:00:05.382Z,3.48
2019-01-02T06:01:05.347Z,3.48
2019-01-02T06:02:05.339Z,3.52
2019-01-02T06:03:05.325Z,3.50
2019-01-02T06:04:05.314Z,3.61
2019-01-02T06:05:05.329Z,3.57
2019-01-02T06:06:05.293Z,3.55
2019-01-02T06:07:05.283Z,3.50
2019-01-02T06:08:05.271Z,3.57
2019-01-02T06:09:05.260Z,3.60
2019-01-02T06:10:05.271Z,3.58
2019-01-02T06:11:05.239Z,3.55
2019-01-02T06:12:05.229Z,3.54
2019-01-02T06:13:05.217Z,3.50
2019-01-02T06:14:05.213Z,3.54
2019-01-02T06:15:05.222Z,3.51
2019-01-02T06:16:05.195Z,3.54
2019-01-02T06:17:05.173Z,3.51
2019-01-02T06:18:05.165Z,3.54
2019-01-02T06:19:05.153Z,3.36
2019-01-02T06:20:05.171Z,3.48
2019-01-02T06:21:05.139Z,3.50
2019-01-02T06:22:05.120Z,3.47
2019-01-02T06:23:05.110Z,3.39
2019-01-02T06:24:05.098Z,3.35
2019-01-02T06:25:05.127Z,3.42
2019-01-02T06:26:05.079Z,3.40
2019-01-02T06:27:05.070Z,3.39
2019-01-02T06:28:05.058Z,3.33
2019-01-02T06:29:05.047Z,3.36
2019-01-02T06:30:05.043Z,3.23
2019-01-02T06:31:05.052Z,3.33
2019-01-02T06:32:05.014Z,3.31
2019-01-02T06:33:05.007Z,3.32
2019-01-02T06:34:04.994Z,3.40
2019-01-02T06:35:04.985Z,3.33
2019-01-02T06:36:04.998Z,3.35
2019-01-02T06:37:04.960Z,3.36
2019-01-02T06:38:04.953Z,3.40
2019-01-02T06:39:04.946Z,3.31
2019-01-02T06:40:04.959Z,3.39
2019-01-02T06:41:04.920Z,3.42
2019-01-02T06:42:04.909Z,3.43
2019-01-02T06:43:04.900Z,3.40
2019-01-02T06:44:04.889Z,3.47
2019-01-02T06:45:04.913Z,3.47
2019-01-02T06:46:04.880Z,3.50
2019-01-02T06:47:04.854Z,3.55
2019-01-02T06:48:04.844Z,3.48
2019-01-02T06:49:04.834Z,3.51
2019-01-02T06:50:04.822Z,3.47
2019-01-02T06:51:04.839Z,3.55
2019-01-02T06:52:04.803Z,3.60
2019-01-02T06:53:04.792Z,3.54
2019-01-02T06:54:04.779Z,3.57
2019-01-02T06:55:04.775Z,3.54
2019-01-02T06:56:04.786Z,3.60
2019-01-02T06:57:04.749Z,3.50
2019-01-02T06:58:04.738Z,3.61
2019-01-02T06:59:04.727Z,3.65
2019-01-02T07:00:04.755Z,3.68
2019-01-02T07:01:04.704Z,3.65
2019-01-02T07:02:04.696Z,3.66
2019-01-02T07:03:04.684Z,3.70
2019-01-02T07:04:04.672Z,3.70
2019-01-02T07:05:04.669Z,3.76
2019-01-02T07:06:04.680Z,3.78
2019-01-02T07:07:04.640Z,3.83
2019-01-02T07:08:04.635Z,3.78
2019-01-02T07:09:04.622Z,3.76
2019-01-02T07:10:04.648Z,3.79
2019-01-02T07:11:04.596Z,3.78
2019-01-02T07:12:04.594Z,3.88
2019-01-02T07:13:04.578Z,3.86
2019-01-02T07:14:04.568Z,3.73
2019-01-02T07:15:04.556Z,3.83
2019-01-02T07:16:04.574Z,3.93
2019-01-02T07:17:04.534Z,3.88
2019-01-02T07:18:04.523Z,3.98
2019-01-02T07:19:04.512Z,3.94
2019-01-02T07:20:04.505Z,4.05
2019-01-02T07:21:04.517Z,3.98
2019-01-02T07:22:04.483Z,3.98
2019-01-02T07:23:04.470Z,3.98
2019-01-02T07:24:04.459Z,3.98
2019-01-02T07:25:04.452Z,4.05
2019-01-02T07:26:04.462Z,4.12
2019-01-02T07:27:04.426Z,3.96
2019-01-02T07:28:04.415Z,4.12
2019-01-02T07:29:04.403Z,4.09
2019-01-02T07:30:04.394Z,4.11
2019-01-02T07:31:04.407Z,3.96
2019-01-02T07:32:04.373Z,4.02
2019-01-02T07:33:04.416Z,4.02
2019-01-02T07:34:04.352Z,4.02
2019-01-02T07:35:04.340Z,3.96
2019-01-02T07:36:04.361Z,3.94
2019-01-02T07:37:04.326Z,3.97
2019-01-02T07:38:04.308Z,4.02
2019-01-02T07:39:04.299Z,3.94
2019-01-02T07:40:04.289Z,3.93
2019-01-02T07:41:04.300Z,3.94
2019-01-02T07:42:04.267Z,3.98
2019-01-02T07:43:04.261Z,3.91
2019-01-02T07:44:04.246Z,3.91
2019-01-02T07:45:04.257Z,4.06
2019-01-02T07:46:04.251Z,3.91
2019-01-02T07:47:04.212Z,3.96
2019-01-02T07:48:04.214Z,3.94
2019-01-02T07:49:04.194Z,4.05
2019-01-02T07:50:04.210Z,4.06
2019-01-02T07:51:04.172Z,4.04
2019-01-02T07:52:04.160Z,4.00
2019-01-02T07:53:04.150Z,4.04
2019-01-02T07:54:04.140Z,3.94
2019-01-02T07:55:04.153Z,4.02
2019-01-02T07:56:04.118Z,4.05
2019-01-02T07:57:04.110Z,4.04
2019-01-02T07:58:04.097Z,4.08
2019-01-02T07:59:04.092Z,4.04
2019-01-02T08:00:04.103Z,4.11
2019-01-02T08:01:04.066Z,4.00
2019-01-02T08:02:04.054Z,4.00
2019-01-02T08:03:04.045Z,4.09
2019-01-02T08:04:04.040Z,4.04
2019-01-02T08:05:04.049Z,4.08
2019-01-02T08:06:04.012Z,4.02
2019-01-02T08:07:04.003Z,4.05
2019-01-02T08:08:03.991Z,4.04
2019-01-02T08:09:03.983Z,4.02
2019-01-02T08:10:04.007Z,3.94
2019-01-02T08:11:03.965Z,3.90
2019-01-02T08:12:04.033Z,3.76
2019-01-02T08:13:03.942Z,3.96
2019-01-02T08:14:03.927Z,3.91
2019-01-02T08:15:03.918Z,3.87
2019-01-02T08:16:03.931Z,3.88
2019-01-02T08:17:03.902Z,3.88
2019-01-02T08:18:03.891Z,3.86
2019-01-02T08:19:03.880Z,3.83
2019-01-02T08:20:04.166Z,3.83
2019-01-02T08:21:03.894Z,3.70
2019-01-02T08:22:03.844Z,3.86
2019-01-02T08:23:03.831Z,3.79
2019-01-02T08:24:03.820Z,3.79
2019-01-02T08:25:03.815Z,3.66
2019-01-02T08:26:03.828Z,3.62
2019-01-02T08:27:03.795Z,3.66
2019-01-02T08:28:03.776Z,3.62
2019-01-02T08:29:03.806Z,3.70
2019-01-02T08:30:03.763Z,3.60
2019-01-02T08:31:03.810Z,3.61
2019-01-02T08:32:03.737Z,3.66
2019-01-02T08:33:03.723Z,3.69
2019-01-02T08:34:03.717Z,3.70
2019-01-02T08:35:03.707Z,3.72
2019-01-02T08:36:03.719Z,3.68
2019-01-02T08:37:03.685Z,3.73
2019-01-02T08:38:03.671Z,3.68
2019-01-02T08:39:03.661Z,3.65
2019-01-02T08:40:03.677Z,3.66
2019-01-02T08:41:03.641Z,3.61
2019-01-02T08:42:03.632Z,3.69
2019-01-02T08:43:03.619Z,3.65
2019-01-02T08:44:03.609Z,3.60
2019-01-02T08:45:03.607Z,3.66
2019-01-02T08:46:03.616Z,3.68
2019-01-02T08:47:03.581Z,3.68
2019-01-02T08:48:03.570Z,3.72
2019-01-02T08:49:03.558Z,3.73
2019-01-02T08:50:03.552Z,3.73
2019-01-02T08:51:03.561Z,3.83
2019-01-02T08:52:03.526Z,3.70
2019-01-02T08:53:03.514Z,3.83
2019-01-02T08:54:03.507Z,3.73
2019-01-02T08:55:03.522Z,3.76
2019-01-02T08:56:03.480Z,3.72
2019-01-02T08:57:03.473Z,3.78
2019-01-02T08:58:03.462Z,3.72
2019-01-02T08:59:03.453Z,3.83
2019-01-02T09:00:03.485Z,3.79
2019-01-02T09:01:03.469Z,3.75
2019-01-02T09:02:03.420Z,3.78
2019-01-02T09:03:03.412Z,3.79
2019-01-02T09:04:03.403Z,3.80
2019-01-02T09:05:03.400Z,3.94
2019-01-02T09:06:03.403Z,3.88
2019-01-02T09:07:10.397Z,3.93
2019-01-02T09:08:03.402Z,3.79
2019-01-02T09:09:03.352Z,3.78
2019-01-02T09:10:03.337Z,3.84
2019-01-02T09:11:03.352Z,3.84
2019-01-02T09:12:03.319Z,3.90
2019-01-02T09:13:03.304Z,3.83
2019-01-02T09:14:03.296Z,3.88
2019-01-02T09:15:03.282Z,3.86
2019-01-02T09:16:03.299Z,3.87
2019-01-02T09:17:03.271Z,3.86
2019-01-02T09:18:03.253Z,3.76
2019-01-02T09:19:03.239Z,3.61
2019-01-02T09:20:03.236Z,3.47
2019-01-02T09:21:03.247Z,3.43
2019-01-02T09:22:03.212Z,3.31
2019-01-02T09:23:03.203Z,3.14
2019-01-02T09:24:03.190Z,3.06
2019-01-02T09:25:03.177Z,2.96
2019-01-02T09:26:03.197Z,2.84
2019-01-02T09:27:03.154Z,2.78
2019-01-02T09:28:03.148Z,2.71
2019-01-02T09:29:03.137Z,2.64
2019-01-02T09:30:03.126Z,2.64
2019-01-02T09:31:03.137Z,2.60
2019-01-02T09:32:03.101Z,2.56
2019-01-02T09:33:03.093Z,2.53
2019-01-02T09:34:03.082Z,2.56
2019-01-02T09:35:03.109Z,2.54
2019-01-02T09:36:03.066Z,2.69
2019-01-02T09:37:03.063Z,2.66
2019-01-02T09:38:03.041Z,2.63
2019-01-02T09:39:03.029Z,2.67
2019-01-02T09:40:03.020Z,2.63
2019-01-02T09:41:03.036Z,2.64
2019-01-02T09:42:02.999Z,2.60
2019-01-02T09:43:02.994Z,2.66
2019-01-02T09:44:02.976Z,2.63
2019-01-02T09:45:02.964Z,2.59
2019-01-02T09:46:02.980Z,2.57
2019-01-02T09:47:02.941Z,2.66
2019-01-02T09:48:02.987Z,2.72
2019-01-02T09:49:02.925Z,2.63
2019-01-02T09:50:02.959Z,2.66
2019-01-02T09:51:02.926Z,2.67
2019-01-02T09:52:02.890Z,2.64
2019-01-02T09:53:02.879Z,2.61
2019-01-02T09:54:02.867Z,2.63
2019-01-02T09:55:02.918Z,2.71
2019-01-02T09:56:02.875Z,2.67
2019-01-02T09:57:02.878Z,2.71
2019-01-02T09:58:02.824Z,2.74
2019-01-02T09:59:02.814Z,2.78
2019-01-02T10:00:02.811Z,2.85
2019-01-02T10:01:02.817Z,2.78
2019-01-02T10:02:02.804Z,2.84
2019-01-02T10:03:02.819Z,2.87
2019-01-02T10:04:02.761Z,2.89
2019-01-02T10:05:02.751Z,2.79
2019-01-02T10:06:02.767Z,2.85
2019-01-02T10:07:02.753Z,2.77
2019-01-02T10:08:02.789Z,2.89
2019-01-02T10:09:02.708Z,2.87
2019-01-02T10:10:02.705Z,2.87
2019-01-02T10:11:02.793Z,2.90
2019-01-02T10:12:02.690Z,2.95
2019-01-02T10:13:02.688Z,2.89
2019-01-02T10:14:02.655Z,2.97
2019-01-02T10:15:02.647Z,2.96
2019-01-02T10:16:02.741Z,3.08
2019-01-02T10:17:02.646Z,3.00
2019-01-02T10:18:02.635Z,2.97
2019-01-02T10:19:02.607Z,2.99
2019-01-02T10:20:02.593Z,3.02
2019-01-02T10:21:02.632Z,3.06
2019-01-02T10:22:02.588Z,3.11
2019-01-02T10:23:02.586Z,3.23
2019-01-02T10:24:02.557Z,3.13
2019-01-02T10:25:02.549Z,3.13
2019-01-02T10:26:02.619Z,3.24
2019-01-02T10:27:02.514Z,3.24
2019-01-02T10:28:02.541Z,3.28
2019-01-02T10:29:02.564Z,3.28
2019-01-02T10:30:02.511Z,3.26
2019-01-02T10:31:02.586Z,3.24
2019-01-02T10:32:02.462Z,3.23
2019-01-02T10:33:02.528Z,3.26
2019-01-02T10:34:02.440Z,3.28
2019-01-02T10:35:02.432Z,3.28
2019-01-02T10:36:02.528Z,3.35
2019-01-02T10:37:02.414Z,3.43
2019-01-02T10:38:02.399Z,3.42
2019-01-02T10:39:02.472Z,3.42
2019-01-02T10:40:02.611Z,3.43
2019-01-02T10:41:02.394Z,3.51
2019-01-02T10:42:02.377Z,3.57
2019-01-02T10:43:02.416Z,3.65
2019-01-02T10:44:02.338Z,3.75
2019-01-02T10:45:02.332Z,3.65
2019-01-02T10:46:02.373Z,3.68
2019-01-02T10:47:02.302Z,3.70
2019-01-02T10:48:02.335Z,3.69
2019-01-02T10:49:02.455Z,3.61
2019-01-02T10:50:02.285Z,3.61
2019-01-02T10:51:02.287Z,3.72
2019-01-02T10:52:02.321Z,3.73
2019-01-02T10:53:02.238Z,3.80
2019-01-02T10:54:02.246Z,3.80
2019-01-02T10:55:02.216Z,3.75
2019-01-02T10:56:02.277Z,3.84
2019-01-02T10:57:02.209Z,3.78
2019-01-02T10:58:02.184Z,3.98
2019-01-02T10:59:02.177Z,3.96
2019-01-02T11:00:02.214Z,3.98
2019-01-02T11:01:02.205Z,4.14
2019-01-02T11:02:02.229Z,4.20
2019-01-02T11:03:02.188Z,4.30
2019-01-02T11:04:02.128Z,4.11
2019-01-02T11:05:02.139Z,4.00
2019-01-02T11:06:02.141Z,4.16
2019-01-02T11:07:02.113Z,4.08
2019-01-02T11:08:02.100Z,4.04
2019-01-02T11:09:02.112Z,4.14
2019-01-02T11:10:02.107Z,4.20
2019-01-02T11:11:02.086Z,4.04
2019-01-02T11:12:02.039Z,4.00
2019-01-02T11:13:02.026Z,4.12
2019-01-02T11:14:02.093Z,4.18
2019-01-02T11:15:02.019Z,4.12
2019-01-02T11:16:02.038Z,3.98
2019-01-02T11:17:02.010Z,4.05
2019-01-02T11:18:01.988Z,4.04
2019-01-02T11:19:01.981Z,3.93
2019-01-02T11:20:01.952Z,3.93
2019-01-02T11:21:02.023Z,3.91
2019-01-02T11:22:02.000Z,3.84
2019-01-02T11:23:01.933Z,3.86
2019-01-02T11:24:01.910Z,3.83
2019-01-02T11:25:01.922Z,3.84
2019-01-02T11:26:01.926Z,3.86
2019-01-02T11:27:01.877Z,3.83
2019-01-02T11:28:01.868Z,3.88
2019-01-02T11:29:01.928Z,3.84
2019-01-02T11:30:01.920Z,3.90
2019-01-02T11:31:01.888Z,3.88
2019-01-02T11:32:01.825Z,3.75
2019-01-02T11:33:01.825Z,3.76
2019-01-02T11:34:01.819Z,3.88
2019-01-02T11:35:01.813Z,3.96
2019-01-02T11:36:01.902Z,3.88
2019-01-02T11:37:01.788Z,3.94
2019-01-02T11:38:01.838Z,3.87
2019-01-02T11:39:01.786Z,3.80
2019-01-02T11:40:01.763Z,3.83
2019-01-02T11:41:01.843Z,3.84
2019-01-02T11:42:01.717Z,3.84
2019-01-02T11:43:01.745Z,3.80
2019-01-02T11:44:01.703Z,3.87
2019-01-02T11:45:01.712Z,3.93
2019-01-02T11:46:01.700Z,4.09
2019-01-02T11:47:01.685Z,4.62
2019-01-02T11:48:01.781Z,5.24
2019-01-02T11:49:01.643Z,5.68
2019-01-02T11:50:01.648Z,6.06
2019-01-02T11:51:01.652Z,6.14
2019-01-02T11:52:01.628Z,6.06
2019-01-02T11:53:01.611Z,5.89
2019-01-02T11:54:01.588Z,5.75
2019-01-02T11:55:01.628Z,5.72
2019-01-02T11:56:01.590Z,5.54
2019-01-02T11:57:01.556Z,5.60
2019-01-02T11:58:01.546Z,5.42
2019-01-02T11:59:01.535Z,5.74
2019-01-02T12:00:01.524Z,6.04
2019-01-02T12:01:01.540Z,5.93
2019-01-02T12:02:01.608Z,6.17
2019-01-02T12:03:01.493Z,5.82
2019-01-02T12:04:01.478Z,5.39
2019-01-02T12:05:01.473Z,5.09
2019-01-02T12:06:01.483Z,5.22
2019-01-02T12:07:01.446Z,5.39
2019-01-02T12:08:01.438Z,5.24
2019-01-02T12:09:01.428Z,5.28
2019-01-02T12:10:01.414Z,5.30
2019-01-02T12:11:01.430Z,5.40
2019-01-02T12:12:01.392Z,5.27
2019-01-02T12:13:01.382Z,5.24
2019-01-02T12:14:01.369Z,5.42
2019-01-02T12:15:01.368Z,5.65
2019-01-02T12:16:01.374Z,5.79
2019-01-02T12:17:01.339Z,5.79
2019-01-02T12:18:01.332Z,6.00
2019-01-02T12:19:01.315Z,6.15
2019-01-02T12:20:01.315Z,6.19
2019-01-02T12:21:01.320Z,6.37
2019-01-02T12:22:01.284Z,6.51
2019-01-02T12:23:01.276Z,6.69
2019-01-02T12:24:01.263Z,6.88
2019-01-02T12:25:01.254Z,6.94
2019-01-02T12:26:01.268Z,7.02
2019-01-02T12:27:01.249Z,7.15
2019-01-02T12:28:01.218Z,7.25
2019-01-02T12:29:01.212Z,7.23
2019-01-02T12:30:01.199Z,7.32
2019-01-02T12:31:01.214Z,7.32
2019-01-02T12:32:01.181Z,7.23
2019-01-02T12:33:01.170Z,7.09
2019-01-02T12:34:01.165Z,7.23
2019-01-02T12:35:01.150Z,7.25
2019-01-02T12:36:01.158Z,7.06
2019-01-02T12:37:01.124Z,7.03
2019-01-02T12:38:01.112Z,7.03
2019-01-02T12:39:01.104Z,7.03
2019-01-02T12:40:01.092Z,6.95
2019-01-02T12:41:01.108Z,6.67
2019-01-02T12:42:01.071Z,6.49
2019-01-02T12:43:01.058Z,6.31
2019-01-02T12:44:01.053Z,5.76
2019-01-02T12:45:01.074Z,5.56
2019-01-02T12:46:01.028Z,5.33
2019-01-02T12:47:01.017Z,5.27
2019-01-02T12:48:01.006Z,5.18
2019-01-02T12:49:00.995Z,5.27
2019-01-02T12:50:00.984Z,5.42
2019-01-02T12:51:00.997Z,5.43
2019-01-02T12:52:00.964Z,5.40
2019-01-02T12:53:00.951Z,5.38
2019-01-02T12:54:00.942Z,5.53
2019-01-02T12:55:00.937Z,5.58
2019-01-02T12:56:00.958Z,5.53
2019-01-02T12:57:00.913Z,5.68
2019-01-02T12:58:00.900Z,5.74
2019-01-02T12:59:00.907Z,5.72
2019-01-02T13:00:00.876Z,5.68
2019-01-02T13:01:00.865Z,5.60
2019-01-02T13:02:00.879Z,5.61
2019-01-02T13:03:00.851Z,5.48
2019-01-02T13:04:00.837Z,5.35
2019-01-02T13:05:00.821Z,5.25
2019-01-02T13:06:00.813Z,5.22
2019-01-02T13:07:00.838Z,5.28
2019-01-02T13:08:00.792Z,5.09
2019-01-02T13:09:00.780Z,5.07
2019-01-02T13:10:00.772Z,5.06
2019-01-02T13:11:00.760Z,5.12
2019-01-02T13:12:00.748Z,5.00
2019-01-02T13:13:00.770Z,5.06
2019-01-02T13:14:00.726Z,5.13
2019-01-02T13:15:00.715Z,5.17
2019-01-02T13:16:00.704Z,5.22
2019-01-02T13:17:00.693Z,5.27
2019-01-02T13:18:00.719Z,5.39